Time;durP1;ratioP1;P1;durP2;ratioP2;P2;SDS_P1;SDS_P2;PMS_P1;PMS_P2;Temp;Humidity;BMP_temperature;BMP_pressure;BME280_temperature;BME280_humidity;BME280_pressure;Samples;Min_cycle;Max_cycle;Signal;HPM_P1;HPM_P2
2022/01/02 00:02:12;;;;;;;;;;;7.70;99.90;;;;;;4936910;29;20036;-85
2022/01/02 00:04:46;;;;;;;29.02;26.15;;;7.70;99.90;;;;;;4936535;29;19911;-84
2022/01/02 00:07:19;;;;;;;32.97;29.45;;;7.50;99.90;;;;;;4936400;29;20033;-85
2022/01/02 00:09:50;;;;;;;31.45;27.25;;;7.60;99.90;;;;;;4935312;29;20067;-84
2022/01/02 00:12:21;;;;;;;30.25;26.83;;;7.60;99.90;;;;;;4935608;29;20039;-85
2022/01/02 00:14:48;;;;;;;30.75;27.35;;;7.60;99.90;;;;;;4935261;29;20043;-85
2022/01/02 00:17:18;;;;;;;40.53;25.67;;;7.60;99.90;;;;;;4935797;29;20051;-84
2022/01/02 00:19:52;;;;;;;27.23;23.70;;;7.50;99.90;;;;;;4935205;29;20397;-85
2022/01/02 00:22:24;;;;;;;27.30;23.10;;;7.50;99.90;;;;;;4935540;29;20493;-85
2022/01/02 00:24:52;;;;;;;25.65;23.33;;;7.40;99.90;;;;;;4935370;29;20035;-85
2022/01/02 00:27:18;;;;;;;22.98;20.55;;;7.50;99.90;;;;;;4935468;29;20040;-85
2022/01/02 00:29:45;;;;;;;26.90;24.17;;;7.50;99.90;;;;;;4935014;29;20043;-85
2022/01/02 00:32:12;;;;;;;24.23;21.95;;;7.40;99.90;;;;;;4918378;29;20055;-85
2022/01/02 00:34:40;;;;;;;25.63;21.67;;;7.40;99.90;;;;;;4934429;29;20036;-85
2022/01/02 00:37:07;;;;;;;24.60;22.13;;;7.50;99.90;;;;;;4918283;29;20051;-85
2022/01/02 00:39:34;;;;;;;34.42;23.00;;;7.50;99.90;;;;;;4933481;29;20043;-83
2022/01/02 00:42:07;;;;;;;37.30;23.83;;;7.50;99.90;;;;;;4935580;29;20031;-85
2022/01/02 00:44:48;;;;;;;24.55;22.13;;;7.50;99.90;;;;;;4933576;29;20040;-84
2022/01/02 00:47:52;;;;;;;24.27;21.88;;;7.60;99.90;;;;;;4935951;29;20042;-85
2022/01/02 00:50:49;;;;;;;26.25;23.42;;;7.60;99.90;;;;;;4918034;29;20048;-84
2022/01/02 00:53:23;;;;;;;24.35;21.80;;;7.50;99.90;;;;;;4934598;29;20054;-85
2022/01/02 00:55:56;;;;;;;27.73;24.48;;;7.50;99.90;;;;;;4935356;29;20036;-85
2022/01/02 00:58:30;;;;;;;26.17;23.17;;;7.50;99.90;;;;;;4936922;29;20047;-85
2022/01/02 01:00:59;;;;;;;26.27;23.95;;;7.50;99.90;;;;;;4935962;29;20050;-85
2022/01/02 01:03:30;;;;;;;32.97;23.63;;;7.60;99.90;;;;;;4917782;29;20043;-83
2022/01/02 01:05:59;;;;;;;26.02;23.35;;;7.70;99.90;;;;;;4918083;29;20051;-86
2022/01/02 01:08:29;;;;;;;24.50;22.02;;;7.70;99.90;;;;;;4934564;29;20035;-85
2022/01/02 01:10:57;;;;;;;27.08;23.83;;;7.70;99.90;;;;;;4935251;29;20378;-87
2022/01/02 01:13:23;;;;;;;25.75;22.20;;;7.70;99.90;;;;;;4935296;29;20039;-85
2022/01/02 01:15:50;;;;;;;25.02;22.60;;;7.70;99.90;;;;;;4917412;29;20051;-84
2022/01/02 01:18:17;;;;;;;24.58;22.10;;;7.60;99.90;;;;;;4934887;29;20051;-84
2022/01/02 01:20:44;;;;;;;29.90;22.58;;;7.50;99.90;;;;;;4937676;29;20036;-84
2022/01/02 01:23:16;;;;;;;22.92;20.52;;;7.40;99.90;;;;;;4939748;29;20039;-84
2022/01/02 01:25:45;;;;;;;;;;;7.40;99.90;;;;;;4938041;29;20401;-84
2022/01/02 01:28:12;;;;;;;27.55;24.65;;;7.30;99.90;;;;;;4935184;29;19911;-84
2022/01/02 01:30:39;;;;;;;31.75;26.10;;;7.10;99.90;;;;;;4917334;29;20067;-84
2022/01/02 01:33:05;;;;;;;33.45;27.00;;;7.00;99.90;;;;;;4933715;29;20050;-84
2022/01/02 01:35:32;;;;;;;34.47;29.40;;;6.90;99.90;;;;;;4934356;29;20036;-84
2022/01/02 01:37:58;;;;;;;34.13;26.23;;;6.90;99.90;;;;;;4934805;29;20031;-84
2022/01/02 01:40:24;;;;;;;30.42;23.15;;;6.80;99.90;;;;;;4933564;29;20047;-84
2022/01/02 01:42:58;;;;;;;41.47;32.67;;;6.80;99.90;;;;;;4933195;29;20044;-84
2022/01/02 01:45:30;;;;;;;43.80;30.38;;;6.80;99.90;;;;;;4917767;29;20059;-84
2022/01/02 01:48:05;;;;;;;23.92;21.38;;;6.80;99.90;;;;;;4917520;29;20048;-84
2022/01/02 01:50:35;;;;;;;25.00;20.85;;;6.80;99.90;;;;;;4917541;29;20062;-84
2022/01/02 01:53:02;;;;;;;24.10;21.67;;;6.70;99.90;;;;;;4918033;29;20047;-85
2022/01/02 01:55:29;;;;;;;25.42;22.92;;;6.80;99.90;;;;;;4934123;29;20385;-75
2022/01/02 01:57:55;;;;;;;24.75;22.30;;;6.80;99.90;;;;;;4917678;29;20080;-86
2022/01/02 02:00:25;;;;;;;27.63;24.63;;;6.90;99.90;;;;;;4918059;29;20075;-85
2022/01/02 02:02:57;;;;;;;29.75;26.58;;;7.00;99.90;;;;;;4917656;29;20328;-84
2022/01/02 02:05:24;;;;;;;30.75;27.63;;;7.10;99.90;;;;;;4917736;29;20055;-84
2022/01/02 02:07:51;;;;;;;29.67;26.58;;;7.10;99.90;;;;;;4932778;29;20040;-84
2022/01/02 02:10:26;;;;;;;32.88;28.45;;;7.10;99.90;;;;;;4918001;29;20052;-84
2022/01/02 02:12:58;;;;;;;32.47;29.13;;;7.10;99.90;;;;;;4921166;29;20079;-85
2022/01/02 02:15:26;;;;;;;31.88;27.80;;;7.10;99.90;;;;;;4936950;29;20070;-85
2022/01/02 02:17:53;;;;;;;31.30;27.95;;;7.10;99.90;;;;;;4936355;29;20044;-84
2022/01/02 02:20:25;;;;;;;29.63;26.65;;;7.10;99.90;;;;;;4920968;29;20059;-85
2022/01/02 02:22:55;;;;;;;;;;;7.10;99.90;;;;;;4921513;29;20401;-84
2022/01/02 02:25:29;;;;;;;30.25;27.17;;;7.00;99.90;;;;;;4938367;29;20380;-85
2022/01/02 02:28:02;;;;;;;33.38;29.50;;;7.00;99.90;;;;;;4936388;29;20044;-84
2022/01/02 02:30:31;;;;;;;30.95;27.73;;;7.10;99.90;;;;;;4920872;29;20055;-84
2022/01/02 02:33:00;;;;;;;31.98;28.73;;;7.00;99.90;;;;;;4937646;29;20062;-87
2022/01/02 02:35:29;;;;;;;32.47;29.15;;;7.00;99.90;;;;;;4936889;29;20477;-81
2022/01/02 02:37:56;;;;;;;30.95;27.88;;;6.90;99.90;;;;;;4938180;29;20039;-83
2022/01/02 02:40:26;;;;;;;29.80;26.73;;;6.90;99.90;;;;;;4938488;29;20504;-84
2022/01/02 02:43:06;;;;;;;31.42;27.33;;;6.90;99.90;;;;;;4923020;29;20040;-85
2022/01/02 02:51:06;;;;;;;32.25;29.00;;;7.00;99.90;;;;;;4936860;29;20059;-84
2022/01/02 02:53:39;;;;;;;30.30;26.77;;;7.00;99.90;;;;;;4931665;29;20058;-79
2022/01/02 02:56:19;;;;;;;31.75;28.75;;;7.10;99.90;;;;;;4938325;29;20492;-86
2022/01/02 02:58:49;;;;;;;37.80;30.90;;;7.10;99.90;;;;;;4921631;29;20482;-86
2022/01/02 03:01:19;;;;;;;31.35;28.05;;;7.10;99.90;;;;;;4921612;29;20048;-86
2022/01/02 03:03:47;;;;;;;30.08;27.10;;;7.00;99.90;;;;;;4920063;29;20493;-84
2022/01/02 03:06:15;;;;;;;30.33;26.75;;;7.00;99.90;;;;;;4919865;29;20470;-87
2022/01/02 03:08:44;;;;;;;27.70;25.02;;;7.00;99.90;;;;;;4919342;29;20055;-84
2022/01/02 03:11:16;;;;;;;28.85;25.90;;;7.00;99.90;;;;;;4937283;29;20046;-84
2022/01/02 03:13:44;;;;;;;28.98;26.33;;;6.90;99.90;;;;;;4936640;29;20373;-85
2022/01/02 03:16:11;;;;;;;30.58;27.35;;;7.00;99.90;;;;;;4919856;29;20503;-85
2022/01/02 03:18:38;;;;;;;29.38;26.15;;;7.00;99.90;;;;;;4936474;29;20032;-86
2022/01/02 03:21:08;;;;;;;30.60;27.52;;;7.00;99.90;;;;;;4919790;29;20039;-84
2022/01/02 03:23:34;;;;;;;29.90;27.00;;;7.00;99.90;;;;;;4935610;29;20047;-78
2022/01/02 03:26:01;;;;;;;29.45;26.70;;;7.10;99.90;;;;;;4935549;29;20059;-85
2022/01/02 03:28:27;;;;;;;33.63;28.52;;;7.10;99.90;;;;;;4922670;29;20046;-87
2022/01/02 03:30:54;;;;;;;33.30;25.38;;;7.10;99.90;;;;;;4939785;29;20261;-85
2022/01/02 03:33:20;;;;;;;27.52;24.50;;;7.10;99.90;;;;;;4936785;29;20042;-86
2022/01/02 03:35:48;;;;;;;27.15;24.25;;;7.10;99.90;;;;;;4960138;29;20047;-86
2022/01/02 03:38:14;;;;;;;24.45;22.10;;;7.00;99.90;;;;;;4960121;28;20040;-85
2022/01/02 03:40:42;;;;;;;31.00;22.52;;;7.00;99.90;;;;;;4943536;29;20038;-78
2022/01/02 03:43:08;;;;;;;26.38;23.73;;;7.00;99.90;;;;;;4923376;29;20054;-83
2022/01/02 03:45:35;;;;;;;24.08;21.73;;;7.00;99.90;;;;;;4918851;29;20062;-75
2022/01/02 03:48:01;;;;;;;23.58;21.30;;;7.00;99.90;;;;;;4936102;29;20059;-86
2022/01/02 03:50:29;;;;;;;25.38;22.63;;;7.00;99.90;;;;;;4918628;29;20421;-85
2022/01/02 03:52:57;;;;;;;27.30;22.15;;;7.00;99.90;;;;;;4918577;29;20055;-86
2022/01/02 03:55:23;;;;;;;22.95;20.58;;;6.90;99.90;;;;;;4936263;29;20035;-86
2022/01/02 03:57:49;;;;;;;24.17;21.73;;;6.90;99.90;;;;;;4935571;29;20031;-83
2022/01/02 04:00:18;;;;;;;22.98;20.73;;;7.00;99.90;;;;;;4919061;29;20054;-83
2022/01/02 04:02:45;;;;;;;22.60;20.25;;;7.10;99.90;;;;;;4918289;29;20411;-84
2022/01/02 04:05:14;;;;;;;135.32;121.88;;;7.10;99.90;;;;;;4934614;29;20047;-83
2022/01/02 04:07:41;;;;;;;43.95;38.80;;;7.20;99.90;;;;;;4934939;29;20070;-84
2022/01/02 04:10:13;;;;;;;513.85;461.45;;;7.10;99.90;;;;;;4935918;29;20469;-84
2022/01/02 04:12:40;;;;;;;149.15;125.50;;;7.10;99.90;;;;;;4917990;29;20056;-84
2022/01/02 04:15:08;;;;;;;52.80;42.17;;;7.10;99.90;;;;;;4935688;29;20051;-84
2022/01/02 04:17:36;;;;;;;32.35;23.42;;;7.00;99.90;;;;;;4934085;29;20043;-84
2022/01/02 04:20:05;;;;;;;72.97;64.97;;;7.10;99.90;;;;;;4935499;29;20031;-84
2022/01/02 04:22:31;;;;;;;62.83;56.30;;;7.10;99.90;;;;;;4934931;29;20051;-84
2022/01/02 04:24:58;;;;;;;31.83;28.63;;;7.10;99.90;;;;;;4917749;29;20056;-84
2022/01/02 04:27:24;;;;;;;33.35;29.60;;;7.10;99.90;;;;;;4918454;29;20040;-84
2022/01/02 04:29:51;;;;;;;40.97;36.28;;;7.10;99.90;;;;;;4918248;29;20128;-83
2022/01/02 04:32:18;;;;;;;23.98;21.45;;;7.10;99.90;;;;;;4918499;29;20505;-83
2022/01/02 04:34:45;;;;;;;20.30;18.23;;;7.10;99.90;;;;;;4933639;29;20051;-84
2022/01/02 04:37:13;;;;;;;36.13;32.53;;;7.20;99.90;;;;;;4917892;29;20405;-84
2022/01/02 04:39:40;;;;;;;30.50;27.00;;;7.20;99.90;;;;;;4917704;29;20044;-84
2022/01/02 04:42:06;;;;;;;30.80;27.98;;;7.20;99.90;;;;;;4918148;29;20141;-85
2022/01/02 04:44:33;;;;;;;23.83;21.65;;;7.10;99.90;;;;;;4934091;29;20040;-85
2022/01/02 04:47:00;;;;;;;23.63;21.25;;;7.10;99.90;;;;;;4934735;29;20031;-85
2022/01/02 04:49:28;;;;;;;18.35;16.63;;;7.10;99.90;;;;;;4933990;29;20106;-84
2022/01/02 04:51:54;;;;;;;28.02;25.23;;;7.10;99.90;;;;;;4917311;29;20059;-83
2022/01/02 04:54:21;;;;;;;17.67;15.90;;;7.20;99.90;;;;;;4918285;29;20048;-84
2022/01/02 04:56:49;;;;;;;31.95;27.10;;;7.20;99.90;;;;;;4917841;29;20044;-84
2022/01/02 04:59:15;;;;;;;24.77;21.67;;;7.20;99.90;;;;;;4918014;29;20052;-84
2022/01/02 05:01:43;;;;;;;29.20;23.23;;;7.20;99.90;;;;;;4917218;29;20500;-83
2022/01/02 05:04:09;;;;;;;21.92;19.67;;;7.20;99.90;;;;;;4935056;29;20035;-84
2022/01/02 05:06:36;;;;;;;37.25;33.63;;;7.20;99.90;;;;;;4917972;29;20489;-84
2022/01/02 05:09:04;;;;;;;46.50;41.60;;;7.10;99.90;;;;;;4932952;29;20051;-89
2022/01/02 05:11:31;;;;;;;17.65;15.80;;;7.20;99.90;;;;;;4918025;29;20052;-85
2022/01/02 05:13:57;;;;;;;29.05;24.55;;;7.30;99.90;;;;;;4917580;29;20412;-85
2022/01/02 05:16:24;;;;;;;32.10;28.92;;;7.20;99.90;;;;;;4933535;29;20048;-85
2022/01/02 05:18:50;;;;;;;20.00;18.00;;;7.20;99.90;;;;;;4933836;29;20397;-85
2022/01/02 05:21:16;;;;;;;23.23;20.42;;;7.20;99.90;;;;;;4934522;29;20051;-85
2022/01/02 05:23:42;;;;;;;21.95;15.90;;;7.20;99.90;;;;;;4936461;29;20405;-84
2022/01/02 05:26:09;;;;;;;19.27;17.60;;;7.10;99.90;;;;;;4926865;29;20048;-84
2022/01/02 05:28:37;;;;;;;20.90;18.77;;;7.10;99.90;;;;;;4939513;29;20044;-85
2022/01/02 05:31:03;;;;;;;25.63;23.27;;;7.00;99.90;;;;;;4934390;29;20051;-85
2022/01/02 05:33:31;;;;;;;24.27;16.73;;;6.90;99.90;;;;;;4934455;29;20055;-85
2022/01/02 05:35:57;;;;;;;37.88;33.38;;;7.00;99.90;;;;;;4933286;29;20028;-85
2022/01/02 05:38:23;;;;;;;16.92;15.02;;;7.10;99.90;;;;;;4934492;29;20393;-84
2022/01/02 05:40:52;;;;;;;34.88;31.20;;;7.10;99.90;;;;;;4932613;29;20047;-85
2022/01/02 05:43:20;;;;;;;16.17;14.63;;;7.10;99.90;;;;;;4917581;29;20048;-85
2022/01/02 05:45:47;;;;;;;18.33;16.52;;;7.10;99.90;;;;;;4918382;29;20486;-85
2022/01/02 05:48:13;;;;;;;25.30;19.23;;;7.20;99.90;;;;;;4938192;29;20500;-86
2022/01/02 05:50:40;;;;;;;15.77;14.13;;;7.20;99.90;;;;;;4917936;29;20048;-86
2022/01/02 05:53:06;;;;;;;15.15;13.80;;;7.20;99.90;;;;;;4917697;29;20406;-86
2022/01/02 05:55:33;;;;;;;16.92;15.32;;;7.10;99.90;;;;;;4920443;29;20473;-85
2022/01/02 05:58:00;;;;;;;19.45;14.02;;;7.20;99.90;;;;;;4939702;29;20051;-86
2022/01/02 06:00:26;;;;;;;15.30;13.77;;;7.20;99.90;;;;;;4918599;29;20512;-86
2022/01/02 06:02:59;;;;;;;17.67;15.70;;;7.10;99.90;;;;;;4917595;29;20055;-85
2022/01/02 06:05:25;;;;;;;16.08;13.82;;;7.20;99.90;;;;;;4933645;29;20036;-86
2022/01/02 06:07:52;;;;;;;14.77;13.23;;;7.20;99.90;;;;;;4933008;29;20044;-86
2022/01/02 06:10:18;;;;;;;17.42;14.07;;;7.10;99.90;;;;;;4933758;29;20048;-86
2022/01/02 06:12:45;;;;;;;15.30;13.70;;;7.00;99.90;;;;;;4918634;29;20134;-84
2022/01/02 06:15:11;;;;;;;14.48;12.98;;;7.00;99.90;;;;;;4918740;29;20048;-86
2022/01/02 06:17:38;;;;;;;17.45;15.75;;;7.00;99.90;;;;;;4919448;29;20494;-84
2022/01/02 06:20:05;;;;;;;17.63;15.93;;;7.00;99.90;;;;;;4917678;29;20505;-86
2022/01/02 06:22:31;;;;;;;16.63;14.93;;;6.90;99.90;;;;;;4933449;29;20059;-86
2022/01/02 06:24:57;;;;;;;19.13;14.35;;;6.90;99.90;;;;;;4932869;29;20051;-86
2022/01/02 06:27:24;;;;;;;17.02;14.38;;;6.90;99.90;;;;;;4917870;29;20402;-86
2022/01/02 06:29:51;;;;;;;16.55;13.82;;;6.90;99.90;;;;;;4932825;29;20055;-85
2022/01/02 06:32:17;;;;;;;15.05;13.48;;;6.90;99.90;;;;;;4920104;29;20228;-86
2022/01/02 06:34:46;;;;;;;17.02;15.32;;;6.90;99.90;;;;;;4933037;29;20055;-86
2022/01/02 06:37:13;;;;;;;15.38;13.75;;;6.80;99.90;;;;;;4933636;29;20394;-86
2022/01/02 06:39:39;;;;;;;18.40;14.85;;;6.80;99.90;;;;;;4933351;29;20051;-86
2022/01/02 06:42:07;;;;;;;20.75;17.48;;;6.70;99.90;;;;;;4917007;29;20044;-86
2022/01/02 06:44:38;;;;;;;17.48;15.68;;;6.70;99.90;;;;;;4917808;29;20050;-86
2022/01/02 06:47:05;;;;;;;22.95;20.50;;;6.70;99.90;;;;;;4916570;29;20251;-86
2022/01/02 06:49:32;;;;;;;19.20;17.33;;;6.70;99.90;;;;;;4932691;29;20059;-85
2022/01/02 06:51:58;;;;;;;215.45;190.75;;;6.80;99.90;;;;;;4932542;29;20063;-85
2022/01/02 06:54:25;;;;;;;69.57;62.33;;;6.70;99.90;;;;;;4932606;29;20058;-86
2022/01/02 06:56:51;;;;;;;70.95;63.63;;;6.70;99.90;;;;;;4930784;29;20044;-86
2022/01/02 06:59:18;;;;;;;25.30;21.52;;;6.70;99.90;;;;;;4917117;29;20044;-85
2022/01/02 07:01:45;;;;;;;24.70;20.17;;;6.70;99.90;;;;;;4917188;29;20059;-82
2022/01/02 07:04:12;;;;;;;20.30;16.88;;;6.60;99.90;;;;;;4917543;29;20083;-86
2022/01/02 07:06:40;;;;;;;19.92;16.90;;;6.60;99.90;;;;;;4919113;29;20044;-85
2022/01/02 07:09:07;;;;;;;16.85;15.35;;;6.70;99.90;;;;;;4923440;29;20397;-85
2022/01/02 07:11:33;;;;;;;17.48;15.60;;;6.60;99.90;;;;;;4937884;29;20044;-84
2022/01/02 07:14:03;;;;;;;19.92;16.83;;;6.70;99.90;;;;;;4941576;28;20035;-83
2022/01/02 07:16:29;;;;;;;32.97;29.90;;;6.70;99.90;;;;;;4929473;28;20050;-86
2022/01/02 07:18:55;;;;;;;25.13;22.88;;;6.80;99.90;;;;;;4918205;29;20032;-84
2022/01/02 07:21:21;;;;;;;17.63;15.77;;;6.80;99.90;;;;;;4918184;29;20036;-85
2022/01/02 07:23:48;;;;;;;18.42;16.00;;;6.80;99.90;;;;;;4918185;29;20028;-86
2022/01/02 07:26:15;;;;;;;18.50;14.57;;;6.80;99.90;;;;;;4918025;29;20040;-85
2022/01/02 07:28:41;;;;;;;17.90;15.68;;;6.70;99.90;;;;;;4917831;29;20454;-85
2022/01/02 07:31:07;;;;;;;15.40;12.93;;;6.80;99.90;;;;;;4916897;29;20040;-83
2022/01/02 07:33:33;;;;;;;16.30;14.70;;;6.70;99.90;;;;;;4917559;29;20059;-85
2022/01/02 07:35:59;;;;;;;15.27;13.90;;;6.70;99.90;;;;;;4916691;29;20036;-82
2022/01/02 07:38:27;;;;;;;23.13;14.35;;;6.70;99.90;;;;;;4918075;29;20039;-83
2022/01/02 07:40:53;;;;;;;18.10;16.35;;;6.70;99.90;;;;;;4917175;29;20028;-82
2022/01/02 07:43:19;;;;;;;17.77;14.77;;;6.70;99.90;;;;;;4917761;29;20063;-84
2022/01/02 07:45:45;;;;;;;18.77;14.25;;;6.80;99.90;;;;;;4916736;29;20036;-84
2022/01/02 07:48:12;;;;;;;17.05;13.55;;;6.80;99.90;;;;;;4916966;29;20047;-82
2022/01/02 07:50:38;;;;;;;15.50;13.90;;;6.90;99.90;;;;;;4932714;29;20052;-83
2022/01/02 07:53:04;;;;;;;15.55;13.95;;;6.90;99.90;;;;;;4935000;29;20051;-83
2022/01/02 07:55:30;;;;;;;15.77;14.30;;;6.90;99.90;;;;;;4936290;29;20050;-82
2022/01/02 07:57:56;;;;;;;14.02;12.73;;;7.00;99.90;;;;;;4935400;29;20032;-81
2022/01/02 08:00:23;;;;;;;14.57;12.90;;;7.00;99.90;;;;;;4935796;29;20038;-83
2022/01/02 08:02:50;;;;;;;16.63;14.00;;;7.00;99.90;;;;;;4935754;29;20039;-77
2022/01/02 08:05:16;;;;;;;14.15;12.73;;;7.00;99.90;;;;;;4936261;29;20032;-81
2022/01/02 08:07:42;;;;;;;14.63;12.93;;;7.10;99.90;;;;;;4947516;29;20038;-82
2022/01/02 08:10:09;;;;;;;17.77;12.05;;;7.10;99.90;;;;;;4935004;29;20040;-82
2022/01/02 08:12:35;;;;;;;13.38;12.02;;;7.20;99.90;;;;;;4934568;29;20046;-82
2022/01/02 08:15:02;;;;;;;13.43;12.23;;;7.30;99.90;;;;;;4933627;29;20047;-82
2022/01/02 08:17:29;;;;;;;13.77;12.43;;;7.30;99.90;;;;;;4935721;29;20489;-82
2022/01/02 08:19:55;;;;;;;12.70;11.50;;;7.30;99.90;;;;;;4935117;29;20488;-82
2022/01/02 08:22:22;;;;;;;13.75;11.77;;;7.30;99.90;;;;;;4935765;29;20027;-82
2022/01/02 08:24:48;;;;;;;42.67;37.63;;;7.30;99.90;;;;;;4945535;29;20043;-84
2022/01/02 08:27:15;;;;;;;157.10;133.25;;;7.30;99.90;;;;;;4922994;29;20466;-84
2022/01/02 08:29:41;;;;;;;180.75;143.57;;;7.30;99.90;;;;;;4935456;29;20027;-83
2022/01/02 08:32:07;;;;;;;47.60;31.90;;;7.30;99.90;;;;;;4934574;29;20043;-85
2022/01/02 08:34:33;;;;;;;46.13;36.42;;;7.40;99.90;;;;;;4935173;29;20043;-83
2022/01/02 08:36:59;;;;;;;105.90;76.38;;;7.40;99.90;;;;;;4934620;29;20385;-83
2022/01/02 08:39:26;;;;;;;16.50;11.07;;;7.40;99.90;;;;;;4935497;29;20032;-83
2022/01/02 08:41:53;;;;;;;16.40;14.35;;;7.40;99.90;;;;;;4935333;29;20042;-83
2022/01/02 08:44:20;;;;;;;47.08;40.95;;;7.40;99.90;;;;;;4936021;29;20039;-84
2022/01/02 08:46:46;;;;;;;25.92;20.30;;;7.40;99.90;;;;;;4936326;29;20059;-83
2022/01/02 08:49:12;;;;;;;37.83;33.92;;;7.40;99.90;;;;;;4942179;29;20035;-83
2022/01/02 08:51:38;;;;;;;18.50;16.60;;;7.40;99.90;;;;;;4959451;29;20036;-82
2022/01/02 08:54:05;;;;;;;14.05;12.60;;;7.40;99.90;;;;;;4958742;28;20044;-81
2022/01/02 08:56:32;;;;;;;18.58;16.52;;;7.40;99.90;;;;;;4957376;28;20050;-84
2022/01/02 08:58:59;;;;;;;28.75;26.10;;;7.50;99.90;;;;;;4934205;29;20054;-80
2022/01/02 09:01:25;;;;;;;12.48;11.10;;;7.60;99.90;;;;;;4934679;29;20031;-77
2022/01/02 09:03:51;;;;;;;10.63;9.60;;;7.60;99.90;;;;;;4934657;29;20050;-80
2022/01/02 09:06:17;;;;;;;10.93;9.15;;;7.70;99.90;;;;;;4919330;29;20044;-80
2022/01/02 09:08:44;;;;;;;10.32;9.38;;;7.80;99.90;;;;;;4951331;29;20042;-81
2022/01/02 09:11:10;;;;;;;10.95;9.00;;;7.80;99.90;;;;;;4953157;29;20031;-83
2022/01/02 09:13:36;;;;;;;11.02;8.98;;;7.90;99.90;;;;;;4953504;29;20038;-83
2022/01/02 09:16:03;;;;;;;13.52;7.90;;;7.90;99.90;;;;;;4953178;29;20035;-82
2022/01/02 09:18:29;;;;;;;9.38;8.32;;;7.90;99.90;;;;;;4953337;29;20058;-82
2022/01/02 09:20:55;;;;;;;12.02;8.57;;;7.90;99.90;;;;;;4954775;28;20043;-81
2022/01/02 09:23:22;;;;;;;9.40;8.40;;;8.00;99.90;;;;;;4952071;29;20043;-81
2022/01/02 09:25:48;;;;;;;10.25;8.30;;;7.90;99.90;;;;;;4949585;29;20484;-81
2022/01/02 09:28:14;;;;;;;7.82;7.13;;;7.90;99.90;;;;;;4921566;29;20051;-77
2022/01/02 09:30:40;;;;;;;11.90;9.13;;;8.00;99.90;;;;;;4921266;29;20044;-78
2022/01/02 09:33:08;;;;;;;12.80;8.38;;;8.00;99.90;;;;;;4938237;29;20117;-81
2022/01/02 09:35:36;;;;;;;8.73;7.93;;;8.00;99.90;;;;;;4938495;29;20043;-81
2022/01/02 09:38:03;;;;;;;12.18;7.68;;;8.00;99.90;;;;;;4938060;29;20409;-81
2022/01/02 09:40:31;;;;;;;9.52;8.43;;;8.10;99.90;;;;;;4937981;29;20039;-81
2022/01/02 09:42:57;;;;;;;10.35;7.65;;;8.10;99.90;;;;;;4942114;29;20401;-80
2022/01/02 09:45:25;;;;;;;8.75;7.85;;;8.10;99.90;;;;;;4944672;29;20035;-81
2022/01/02 09:47:52;;;;;;;9.48;8.50;;;8.10;99.90;;;;;;4952005;29;20358;-82
2022/01/02 09:50:18;;;;;;;12.25;9.25;;;8.10;99.90;;;;;;4959454;29;20059;-85
2022/01/02 09:52:46;;;;;;;10.73;8.45;;;8.20;99.90;;;;;;4958063;29;20485;-87
2022/01/02 09:55:12;;;;;;;10.32;8.02;;;8.20;99.90;;;;;;4957700;29;20035;-84
2022/01/02 09:57:43;;;;;;;11.02;7.40;;;8.20;99.90;;;;;;4942585;29;20042;-86
2022/01/02 10:00:09;;;;;;;;;;;8.20;99.90;;;;;;4958209;29;20038;-89
2022/01/02 10:02:56;;;;;;;8.23;7.32;;;8.20;99.90;;;;;;4959292;28;19918;-88
2022/01/02 10:05:24;;;;;;;11.80;7.80;;;8.20;99.90;;;;;;4957836;29;20046;-86
2022/01/02 10:07:52;;;;;;;12.45;7.97;;;8.20;99.90;;;;;;4957979;29;20035;-79
2022/01/02 10:10:19;;;;;;;9.52;7.70;;;8.30;99.90;;;;;;4955678;29;20049;-82
2022/01/02 10:12:46;;;;;;;8.70;7.78;;;8.30;99.90;;;;;;4946542;29;20027;-84
2022/01/02 10:15:16;;;;;;;10.70;7.97;;;8.30;99.90;;;;;;4955857;29;20040;-82
2022/01/02 10:18:06;;;;;;;7.72;6.95;;;8.30;99.90;;;;;;4956480;29;20040;-81
2022/01/02 10:20:42;;;;;;;10.57;7.32;;;8.40;99.90;;;;;;4957023;29;20403;-80
2022/01/02 10:23:24;;;;;;;11.15;7.85;;;8.50;99.90;;;;;;4939267;29;20044;-81
2022/01/02 10:25:55;;;;;;;9.90;6.78;;;8.50;99.90;;;;;;4956689;29;20477;-84
2022/01/02 10:28:27;;;;;;;;;;;8.50;99.90;;;;;;4956651;29;20120;-83
2022/01/02 10:30:56;;;;;;;8.63;7.03;;;8.50;99.90;;;;;;4956593;28;20356;-83
2022/01/02 10:33:23;;;;;;;7.93;7.20;;;8.60;99.90;;;;;;4956125;29;20039;-82
2022/01/02 10:36:00;;;;;;;10.05;7.18;;;8.60;99.90;;;;;;4956672;29;20500;-83
2022/01/02 10:38:29;;;;;;;7.22;6.53;;;8.60;99.90;;;;;;4956930;29;20027;-83
2022/01/02 10:40:56;;;;;;;12.45;8.02;;;8.60;99.90;;;;;;4956954;29;20034;-84
2022/01/02 10:43:25;;;;;;;9.95;7.75;;;8.60;99.90;;;;;;4955949;29;20043;-84
2022/01/02 10:45:53;;;;;;;7.03;6.07;;;8.60;99.90;;;;;;4956494;29;20042;-84
2022/01/02 10:48:33;;;;;;;7.53;6.82;;;8.70;99.90;;;;;;4956276;29;20625;-86
2022/01/02 10:51:09;;;;;;;10.57;6.30;;;8.80;99.90;;;;;;4937748;29;20052;-83
2022/01/02 10:53:54;;;;;;;8.15;6.68;;;8.80;99.90;;;;;;4949148;29;20043;-82
2022/01/02 10:56:31;;;;;;;7.70;6.18;;;8.90;99.90;;;;;;4952048;29;20456;-83
2022/01/02 10:58:58;;;;;;;16.92;15.43;;;8.90;99.90;;;;;;4944978;29;20039;-84
2022/01/02 11:01:25;;;;;;;56.63;50.22;;;8.90;99.90;;;;;;4946112;29;20036;-84
2022/01/02 11:03:52;;;;;;;30.95;25.73;;;9.00;99.90;;;;;;4956377;29;20493;-84
2022/01/02 11:06:32;;;;;;;13.13;11.77;;;9.00;99.90;;;;;;4956026;29;20047;-84
2022/01/02 11:08:59;;;;;;;14.77;9.15;;;8.90;99.90;;;;;;4956113;29;20038;-84
2022/01/02 11:11:26;;;;;;;13.85;10.43;;;8.90;99.90;;;;;;4955569;29;20376;-89
2022/01/02 11:13:52;;;;;;;8.50;7.40;;;8.80;99.90;;;;;;4958172;29;20035;-87
2022/01/02 11:16:19;;;;;;;8.85;7.93;;;8.80;99.90;;;;;;4956101;29;20397;-83
2022/01/02 11:18:47;;;;;;;8.52;7.72;;;8.80;99.90;;;;;;4956032;29;20036;-83
2022/01/02 11:21:13;;;;;;;11.35;10.27;;;8.80;99.90;;;;;;4955205;29;20032;-80
2022/01/02 11:24:06;;;;;;;28.17;22.42;;;8.80;99.90;;;;;;4941546;29;20044;-80
2022/01/02 11:27:15;;;;;;;18.17;15.40;;;8.90;99.90;;;;;;4942641;29;20068;-80
2022/01/02 11:29:41;;;;;;;11.88;8.40;;;8.90;99.90;;;;;;4880181;29;20061;-80
2022/01/02 11:32:34;;;;;;;7.43;6.65;;;9.00;99.90;;;;;;4955253;29;20465;-80
2022/01/02 11:35:23;;;;;;;10.45;7.93;;;9.00;99.90;;;;;;4948865;29;20051;-80
2022/01/02 11:37:53;;;;;;;11.93;10.73;;;9.10;99.90;;;;;;4945382;29;20036;-80
2022/01/02 11:40:48;;;;;;;12.40;10.25;;;9.20;99.90;;;;;;4943968;29;20035;-80
2022/01/02 11:43:36;;;;;;;15.88;13.80;;;9.30;99.00;;;;;;4944808;29;20027;-80
2022/01/02 11:46:28;;;;;;;8.52;7.68;;;9.30;98.90;;;;;;4946073;29;20027;-78
2022/01/02 11:49:13;;;;;;;18.75;11.93;;;9.40;98.10;;;;;;4945388;29;20031;-79
2022/01/02 11:51:48;;;;;;;8.45;6.50;;;9.40;98.30;;;;;;4943629;29;20126;-80
2022/01/02 11:54:32;;;;;;;14.00;8.38;;;9.40;97.90;;;;;;4940661;29;20046;-81
2022/01/02 11:57:01;;;;;;;16.27;13.18;;;9.50;98.10;;;;;;4945710;29;20034;-80
2022/01/02 11:59:39;;;;;;;11.60;8.10;;;9.50;96.90;;;;;;4954293;29;20035;-80
2022/01/02 12:02:17;;;;;;;8.95;6.15;;;9.60;96.80;;;;;;4951591;29;20032;-80
2022/01/02 12:07:37;;;;;;;11.38;10.23;;;9.80;96.20;;;;;;4935722;29;20496;-75
2022/01/02 12:10:16;;;;;;;14.43;13.02;;;9.90;96.00;;;;;;4936014;29;20038;-76
2022/01/02 12:13:00;;;;;;;17.77;11.38;;;9.90;95.90;;;;;;4934951;29;20075;-76
2022/01/02 12:15:32;;;;;;;8.93;5.85;;;9.90;95.90;;;;;;4935206;29;20404;-77
2022/01/02 12:18:15;;;;;;;8.98;5.97;;;9.90;95.70;;;;;;4935446;29;20070;-77
2022/01/02 12:20:50;;;;;;;9.00;4.72;;;10.00;95.30;;;;;;4935551;29;20381;-77
2022/01/02 12:23:43;;;;;;;6.97;6.22;;;10.10;95.20;;;;;;4935163;29;20046;-74
2022/01/02 12:26:16;;;;;;;6.93;5.28;;;10.30;94.60;;;;;;4929498;29;20044;-75
2022/01/02 12:29:01;;;;;;;8.43;6.60;;;10.40;94.50;;;;;;4935456;29;20046;-75
2022/01/02 12:31:39;;;;;;;5.43;4.93;;;10.40;94.20;;;;;;4935139;29;20054;-75
2022/01/02 12:34:17;;;;;;;9.85;8.82;;;10.40;93.90;;;;;;4935323;29;20417;-75
2022/01/02 12:36:48;;;;;;;7.00;6.30;;;10.50;93.60;;;;;;4935602;29;20047;-75
2022/01/02 12:39:27;;;;;;;4.25;3.38;;;10.60;93.80;;;;;;4934641;29;20036;-74
2022/01/02 12:41:53;;;;;;;15.73;12.60;;;10.60;92.80;;;;;;4935261;29;20381;-75
2022/01/02 12:44:29;;;;;;;10.82;5.97;;;10.80;92.90;;;;;;4934954;29;20039;-78
2022/01/02 12:47:01;;;;;;;5.38;4.32;;;10.80;92.20;;;;;;4935348;29;20036;-76
2022/01/02 12:49:43;;;;;;;4.75;4.13;;;10.80;92.00;;;;;;4934657;29;20398;-77
2022/01/02 12:52:12;;;;;;;7.32;5.00;;;10.80;91.90;;;;;;4934707;29;20386;-77
2022/01/02 12:54:49;;;;;;;7.18;4.45;;;10.70;92.00;;;;;;4935308;29;20047;-76
2022/01/02 12:57:16;;;;;;;5.18;4.65;;;10.70;91.70;;;;;;4934447;29;20463;-77
2022/01/02 12:59:47;;;;;;;11.55;4.38;;;10.80;91.50;;;;;;4934969;29;20032;-75
2022/01/02 13:02:19;;;;;;;5.30;4.13;;;11.00;91.10;;;;;;4934277;29;20046;-75